createdAt,value
2024-03-04T01:02:09.648Z,5.78
2024-03-04T01:04:40.046Z,5.81
2024-03-04T01:07:10.881Z,5.74
2024-03-04T01:09:44.141Z,5.46
2024-03-04T01:12:14.724Z,5.46
2024-03-04T01:14:47.451Z,5.41
2024-03-04T01:17:19.364Z,5.41
2024-03-04T01:19:50.549Z,5.47
2024-03-04T01:22:21.289Z,5.41
2024-03-04T01:24:52.193Z,5.46
2024-03-04T01:27:23.855Z,5.56
2024-03-04T01:29:54.212Z,5.50
2024-03-04T01:32:26.831Z,5.53
2024-03-04T01:34:57.394Z,5.49
2024-03-04T01:37:27.577Z,5.39
2024-03-04T01:40:00.717Z,5.42
2024-03-04T01:48:54.119Z,5.38
2024-03-04T01:58:51.117Z,5.39
2024-03-04T02:03:06.175Z,5.25
2024-03-04T02:06:24.680Z,5.26
2024-03-04T02:12:14.634Z,5.31
2024-03-04T02:13:05.461Z,5.35
2024-03-04T02:19:03.414Z,5.22
2024-03-04T02:32:51.908Z,5.22
2024-03-04T02:35:52.176Z,5.17
2024-03-04T02:41:43.707Z,5.12
2024-03-04T02:45:07.223Z,5.21
2024-03-04T02:56:19.420Z,4.93
2024-03-04T02:58:56.936Z,4.70
2024-03-04T03:01:46.266Z,4.59
2024-03-04T03:07:45.412Z,4.59
2024-03-04T03:07:58.709Z,4.52
2024-03-04T03:10:15.060Z,4.62
2024-03-04T03:16:04.855Z,4.43
2024-03-04T03:19:04.074Z,4.60
2024-03-04T03:21:37.416Z,4.65
2024-03-04T03:24:29.636Z,4.53
2024-03-04T03:27:27.496Z,4.51
2024-03-04T03:29:59.589Z,4.51
2024-03-04T03:33:19.323Z,4.36
2024-03-04T03:36:35.511Z,4.44
2024-03-04T03:39:29.799Z,4.45
2024-03-04T03:42:34.591Z,4.27
2024-03-04T03:48:22.862Z,4.23
2024-03-04T03:59:13.974Z,4.39
2024-03-04T04:01:45.682Z,4.37
2024-03-04T04:09:38.601Z,4.36
2024-03-04T04:13:01.012Z,4.22
2024-03-04T04:20:33.604Z,4.14
2024-03-04T04:27:24.112Z,4.15
2024-03-04T04:30:44.253Z,4.15
2024-03-04T04:33:35.445Z,3.87
2024-03-04T04:36:54.243Z,3.85
2024-03-04T04:39:30.809Z,3.78
2024-03-04T04:42:21.023Z,3.76
2024-03-04T04:45:27.004Z,3.89
2024-03-04T04:48:24.031Z,3.81
2024-03-04T04:50:58.868Z,3.78
2024-03-04T04:53:43.523Z,3.48
2024-03-04T04:57:11.593Z,3.42
2024-03-04T04:59:45.058Z,3.25
2024-03-04T05:03:02.021Z,3.12
2024-03-04T05:06:01.466Z,3.17
2024-03-04T05:09:45.591Z,3.11
2024-03-04T05:12:19.200Z,2.96
2024-03-04T05:15:37.718Z,3.06
2024-03-04T05:20:07.969Z,2.83
2024-03-04T05:22:41.205Z,2.68
2024-03-04T05:28:36.919Z,2.76
2024-03-04T05:31:32.162Z,2.75
2024-03-04T05:37:40.732Z,2.85
2024-03-04T05:40:43.003Z,2.82
2024-03-04T05:44:08.463Z,2.67
2024-03-04T05:47:31.423Z,2.73
2024-03-04T05:53:11.997Z,2.62
2024-03-04T05:53:13.049Z,2.64
2024-03-04T06:02:08.018Z,2.59
2024-03-04T06:04:44.673Z,2.70
2024-03-04T06:07:36.825Z,2.73
2024-03-04T06:10:32.463Z,2.69
2024-03-04T06:13:26.286Z,2.74
2024-03-04T06:15:58.644Z,2.78
2024-03-04T06:28:06.225Z,2.94
2024-03-04T06:30:42.501Z,2.88
2024-03-04T06:36:11.628Z,2.99
2024-03-04T06:39:45.476Z,3.04
2024-03-04T06:42:18.474Z,3.02
2024-03-04T06:45:21.153Z,3.04
2024-03-04T06:47:52.105Z,2.95
2024-03-04T06:53:43.543Z,3.00
2024-03-04T06:56:15.983Z,2.95
2024-03-04T06:59:14.352Z,3.04
2024-03-04T07:01:43.922Z,3.09
2024-03-04T07:04:31.532Z,3.12
2024-03-04T07:08:01.138Z,3.16
2024-03-04T07:10:53.413Z,2.91
2024-03-04T07:13:29.144Z,3.03
2024-03-04T07:16:16.769Z,3.13
2024-03-04T07:18:49.504Z,3.13
2024-03-04T07:21:24.639Z,3.22
2024-03-04T07:24:51.270Z,3.15
2024-03-04T07:31:06.217Z,3.23
2024-03-04T07:33:58.839Z,3.25
2024-03-04T07:36:49.226Z,3.13
2024-03-04T07:43:14.573Z,3.09
2024-03-04T07:46:05.405Z,3.14
2024-03-04T07:49:32.216Z,3.06
2024-03-04T07:52:30.318Z,3.07
2024-03-04T07:55:43.123Z,3.03
2024-03-04T07:58:17.258Z,2.97
2024-03-04T08:00:49.384Z,3.03
2024-03-04T08:03:22.167Z,2.95
2024-03-04T08:05:52.389Z,3.03
2024-03-04T08:12:13.465Z,3.08
2024-03-04T08:15:11.874Z,2.70
2024-03-04T08:17:57.683Z,2.95
2024-03-04T08:20:34.258Z,2.97
2024-03-04T08:23:26.811Z,2.98
2024-03-04T08:29:11.473Z,3.03
2024-03-04T08:29:19.966Z,2.80
2024-03-04T08:31:51.224Z,2.99
2024-03-04T08:34:46.347Z,2.86
2024-03-04T08:41:23.430Z,2.65
2024-03-04T08:50:46.781Z,2.55
2024-03-04T08:53:39.302Z,2.52
2024-03-04T08:56:14.863Z,2.33
2024-03-04T08:59:08.396Z,2.33
2024-03-04T09:02:00.082Z,2.28
2024-03-04T09:12:00.405Z,2.24
2024-03-04T09:20:56.987Z,2.26
2024-03-04T09:27:37.258Z,2.15
2024-03-04T09:30:58.267Z,2.12
2024-03-04T09:33:30.786Z,2.17
2024-03-04T09:47:24.068Z,2.09
2024-03-04T09:49:21.257Z,2.15
2024-03-04T09:54:49.279Z,2.10
2024-03-04T10:00:44.104Z,1.95
2024-03-04T10:03:40.567Z,1.79
2024-03-04T10:06:37.599Z,1.68
2024-03-04T10:09:26.093Z,1.54
2024-03-04T10:12:28.597Z,1.69
2024-03-04T10:22:07.562Z,1.95
2024-03-04T10:24:59.432Z,1.94
2024-03-04T10:27:39.867Z,1.84
2024-03-04T10:30:54.465Z,1.91
2024-03-04T10:33:27.303Z,2.03
2024-03-04T10:36:21.204Z,1.99
2024-03-04T10:40:04.409Z,1.97
2024-03-04T10:42:41.401Z,1.99
2024-03-04T10:45:31.495Z,1.96
2024-03-04T10:48:31.933Z,2.06
2024-03-04T10:51:31.882Z,2.05
2024-03-04T10:58:14.321Z,1.89
2024-03-04T11:01:07.881Z,2.11
2024-03-04T11:04:06.166Z,1.87
2024-03-04T11:07:21.673Z,2.08
2024-03-04T11:10:00.236Z,1.99
2024-03-04T11:13:34.574Z,1.90
2024-03-04T11:20:27.957Z,1.88
2024-03-04T11:23:24.355Z,1.99
2024-03-04T11:26:11.870Z,2.00
2024-03-04T11:29:35.351Z,1.89
2024-03-04T11:35:25.370Z,1.90
2024-03-04T11:38:29.012Z,2.06
2024-03-04T11:41:51.951Z,2.10
2024-03-04T11:48:27.936Z,2.18
2024-03-04T11:51:03.279Z,2.14
2024-03-04T11:52:21.591Z,2.11
2024-03-04T11:56:34.251Z,2.18
2024-03-04T11:59:24.816Z,2.21
2024-03-04T12:02:23.152Z,2.10
2024-03-04T12:04:57.284Z,2.21
2024-03-04T12:09:44.777Z,2.36
2024-03-04T12:10:40.881Z,2.40
2024-03-04T12:13:10.910Z,2.33
2024-03-04T12:15:44.005Z,2.41
2024-03-04T12:18:21.952Z,2.42
2024-03-04T12:22:06.563Z,2.42
2024-03-04T12:28:20.440Z,2.38
2024-03-04T12:30:49.816Z,2.46
2024-03-04T12:36:44.088Z,2.48
2024-03-04T12:39:37.589Z,2.52
2024-03-04T12:42:08.988Z,2.57
2024-03-04T12:44:43.314Z,2.54
2024-03-04T12:47:33.314Z,2.47
2024-03-04T12:50:53.882Z,2.53
2024-03-04T12:53:31.671Z,2.54
2024-03-04T12:56:29.925Z,2.58
2024-03-04T12:59:27.891Z,2.53
2024-03-04T13:02:38.662Z,2.53
2024-03-04T13:05:41.020Z,2.52
2024-03-04T13:09:23.351Z,2.44
2024-03-04T13:12:03.022Z,2.45
2024-03-04T13:14:56.893Z,2.52
2024-03-04T13:18:07.922Z,2.49
2024-03-04T13:21:08.409Z,2.49
2024-03-04T13:24:08.388Z,2.52
2024-03-04T13:27:01.390Z,2.58
2024-03-04T13:29:34.008Z,2.65
2024-03-04T13:32:07.300Z,2.56
2024-03-04T13:35:02.035Z,2.65
2024-03-04T13:41:10.767Z,2.70
2024-03-04T13:43:49.544Z,2.73
2024-03-04T13:46:22.816Z,2.78
2024-03-04T13:49:08.333Z,2.67
2024-03-04T13:51:52.800Z,2.62
2024-03-04T13:55:51.878Z,2.63
2024-03-04T14:00:33.439Z,2.78
2024-03-04T14:03:11.104Z,2.71
2024-03-04T14:06:07.825Z,2.75
2024-03-04T14:09:02.540Z,2.77
2024-03-04T14:12:17.697Z,2.78
2024-03-04T14:15:43.485Z,2.69
2024-03-04T14:18:13.040Z,2.77
2024-03-04T14:23:41.496Z,2.78
2024-03-04T14:29:27.791Z,2.94
2024-03-04T14:32:01.073Z,2.93
2024-03-04T14:34:33.955Z,2.97
2024-03-04T14:37:33.721Z,2.86
2024-03-04T14:43:52.788Z,2.97
2024-03-04T14:46:46.968Z,2.85
2024-03-04T14:53:04.147Z,2.92
2024-03-04T14:53:34.423Z,2.83
2024-03-04T15:02:35.717Z,2.83
2024-03-04T15:05:54.370Z,2.87
2024-03-04T15:08:29.936Z,2.65
2024-03-04T15:11:27.179Z,2.80
2024-03-04T15:14:02.206Z,2.58
2024-03-04T15:21:34.076Z,2.86
2024-03-04T15:33:19.068Z,2.97
2024-03-04T15:36:20.257Z,2.94
2024-03-04T15:42:06.014Z,3.00
2024-03-04T15:47:25.460Z,2.88
2024-03-04T15:50:58.010Z,2.95
2024-03-04T15:54:18.047Z,2.98
2024-03-04T15:57:09.872Z,2.90
2024-03-04T16:00:01.696Z,2.93
2024-03-04T16:07:10.200Z,2.96
2024-03-04T16:31:52.551Z,3.17
2024-03-04T16:32:19.647Z,3.08
2024-03-04T16:51:44.421Z,3.70
2024-03-04T17:43:54.759Z,4.53
2024-03-04T17:46:38.902Z,4.38
2024-03-04T17:49:11.388Z,4.55
2024-03-04T17:51:58.726Z,4.70
2024-03-04T17:54:27.619Z,4.87
2024-03-04T17:57:00.673Z,4.80
2024-03-04T17:59:31.062Z,4.76
2024-03-04T18:02:00.761Z,5.01
2024-03-04T18:04:29.974Z,5.27
2024-03-04T18:06:58.841Z,5.39
2024-03-04T18:09:27.641Z,5.51
2024-03-04T18:11:56.525Z,5.45
2024-03-04T18:14:25.384Z,5.44
2024-03-04T18:16:54.528Z,5.64
2024-03-04T18:19:23.706Z,5.75
2024-03-04T18:21:52.722Z,5.81
2024-03-04T18:24:21.572Z,5.73
2024-03-04T18:26:50.617Z,5.92
2024-03-04T18:29:19.459Z,6.05
2024-03-04T18:31:49.228Z,5.88
2024-03-04T18:34:19.069Z,6.11
2024-03-04T18:36:51.195Z,6.41
2024-03-04T18:39:20.145Z,6.66
2024-03-04T19:11:15.716Z,6.36
2024-03-04T19:13:45.733Z,6.65
2024-03-04T19:16:17.916Z,6.72
2024-03-04T19:18:47.141Z,7.02
2024-03-04T19:21:21.296Z,6.76
2024-03-04T19:23:50.228Z,6.86
2024-03-04T19:26:20.875Z,6.74
2024-03-04T19:28:54.283Z,6.67
2024-03-04T19:31:24.908Z,6.84
2024-03-04T19:33:54.957Z,7.06
2024-03-04T19:36:25.199Z,7.48
2024-03-04T19:38:54.949Z,7.04
2024-03-04T19:41:33.345Z,7.20
2024-03-04T19:44:06.835Z,6.83
2024-03-04T19:46:36.865Z,6.63
2024-03-04T19:49:06.535Z,6.48
2024-03-04T19:51:38.233Z,6.77
2024-03-04T19:54:07.793Z,7.20
2024-03-04T19:56:37.564Z,7.24
2024-03-04T19:59:07.572Z,7.10
2024-03-04T20:01:37.437Z,7.08
2024-03-04T20:04:07.600Z,7.30
2024-03-04T20:06:37.403Z,7.26
2024-03-04T20:09:07.371Z,7.23
2024-03-04T20:11:37.190Z,6.95
2024-03-04T20:14:07.227Z,7.11
2024-03-04T20:16:37.570Z,6.98
2024-03-04T20:19:07.832Z,6.81
2024-03-04T20:21:38.890Z,7.11
2024-03-04T20:24:08.817Z,6.77
2024-03-04T20:26:38.526Z,7.02
2024-03-04T20:29:08.513Z,7.06
2024-03-04T20:31:39.101Z,7.44
2024-03-04T20:34:09.306Z,7.18
2024-03-04T20:36:40.549Z,7.15
2024-03-04T20:39:10.213Z,6.87
2024-03-04T20:44:47.653Z,6.62
2024-03-04T20:47:16.681Z,7.09
2024-03-04T20:49:45.478Z,7.92
2024-03-04T20:52:15.048Z,8.36
2024-03-04T20:54:43.973Z,8.56
2024-03-04T20:57:12.820Z,9.20
2024-03-04T20:59:41.677Z,9.08
2024-03-04T21:02:10.987Z,8.89
2024-03-04T21:04:39.951Z,9.42
2024-03-04T21:07:11.518Z,9.38
2024-03-04T21:09:40.449Z,9.54
2024-03-04T21:12:10.844Z,9.62
2024-03-04T21:14:41.031Z,9.55
2024-03-04T21:17:09.902Z,9.39
2024-03-04T21:19:42.233Z,8.65
2024-03-04T21:22:11.660Z,8.76
2024-03-04T21:24:42.747Z,9.08
2024-03-04T21:27:17.833Z,8.92
2024-03-04T21:29:46.940Z,8.08
2024-03-04T21:32:15.862Z,7.79
2024-03-04T21:34:44.887Z,7.69
2024-03-04T21:37:21.102Z,7.56
2024-03-04T21:39:53.569Z,7.73
2024-03-04T21:42:23.626Z,7.53
2024-03-04T21:44:52.531Z,7.30
2024-03-04T21:47:21.320Z,7.20
2024-03-04T21:49:50.218Z,6.98
2024-03-04T21:52:22.024Z,6.98
2024-03-04T21:54:52.846Z,6.75
2024-03-04T21:57:23.463Z,6.65
2024-03-04T21:59:52.353Z,6.59
2024-03-04T22:02:21.294Z,6.69
2024-03-04T22:04:50.156Z,6.71
2024-03-04T22:07:19.138Z,6.82
2024-03-04T22:09:48.733Z,6.78
2024-03-04T22:12:19.022Z,6.73
2024-03-04T22:14:47.933Z,6.85
2024-03-04T22:17:17.217Z,6.71
2024-03-04T22:19:47.018Z,6.97
2024-03-04T22:22:15.935Z,6.79
2024-03-04T22:24:47.138Z,6.85
2024-03-04T22:27:17.646Z,6.76
2024-03-04T22:29:46.591Z,7.03
2024-03-04T22:32:15.756Z,7.10
2024-03-04T22:34:45.002Z,7.13
2024-03-04T22:37:15.440Z,6.90
2024-03-04T22:39:46.786Z,7.03
2024-03-04T22:42:15.904Z,6.85
2024-03-04T22:44:45.588Z,6.80
2024-03-04T22:47:14.836Z,6.80
2024-03-04T22:49:44.203Z,6.95
2024-03-04T22:52:23.041Z,7.01
2024-03-04T22:54:52.119Z,7.06
2024-03-04T22:57:21.111Z,7.11
2024-03-04T22:59:53.294Z,6.91
2024-03-04T23:02:22.256Z,6.85
2024-03-04T23:05:28.144Z,7.09
2024-03-04T23:08:08.904Z,6.91
2024-03-04T23:11:11.280Z,6.97
2024-03-04T23:13:47.229Z,6.99
2024-03-04T23:16:17.180Z,6.99
2024-03-04T23:22:36.810Z,6.85
2024-03-04T23:25:10.688Z,6.85
2024-03-04T23:27:41.920Z,6.82
2024-03-04T23:30:32.729Z,6.97
2024-03-04T23:36:01.880Z,7.12
2024-03-04T23:38:32.147Z,7.26
2024-03-04T23:54:01.485Z,5.64
2024-03-04T23:56:30.593Z,5.85
2024-03-04T23:58:59.510Z,5.74
